Map

Track Data

SID SEASON NUMBER BASIN SUBBASIN NAME ISO_TIME NATURE LAT LON WMO_WIND WMO_PRES WMO_AGENCY TRACK_TYPE DIST2LAND LANDFALL IFLAG USA_AGENCY USA_ATCF_ID USA_LAT USA_LON USA_RECORD USA_STATUS USA_WIND USA_PRES USA_SSHS USA_R34_NE USA_R34_SE USA_R34_SW USA_R34_NW USA_R50_NE USA_R50_SE USA_R50_SW USA_R50_NW USA_R64_NE USA_R64_SE USA_R64_SW USA_R64_NW USA_POCI USA_ROCI USA_RMW USA_EYE TOKYO_LAT TOKYO_LON TOKYO_GRADE TOKYO_WIND TOKYO_PRES TOKYO_R50_DIR TOKYO_R50_LONG TOKYO_R50_SHORT TOKYO_R30_DIR TOKYO_R30_LONG TOKYO_R30_SHORT TOKYO_LAND CMA_LAT CMA_LON CMA_CAT CMA_WIND CMA_PRES HKO_LAT HKO_LON HKO_CAT HKO_WIND HKO_PRES NEWDELHI_LAT NEWDELHI_LON NEWDELHI_GRADE NEWDELHI_WIND NEWDELHI_PRES NEWDELHI_CI NEWDELHI_DP NEWDELHI_POCI REUNION_LAT REUNION_LON REUNION_TYPE REUNION_WIND REUNION_PRES REUNION_TNUM REUNION_CI REUNION_RMW REUNION_R34_NE REUNION_R34_SE REUNION_R34_SW REUNION_R34_NW REUNION_R50_NE REUNION_R50_SE REUNION_R50_SW REUNION_R50_NW REUNION_R64_NE REUNION_R64_SE REUNION_R64_SW REUNION_R64_NW BOM_LAT BOM_LON BOM_TYPE BOM_WIND BOM_PRES BOM_TNUM BOM_CI BOM_RMW BOM_R34_NE BOM_R34_SE BOM_R34_SW BOM_R34_NW BOM_R50_NE BOM_R50_SE BOM_R50_SW BOM_R50_NW BOM_R64_NE BOM_R64_SE BOM_R64_SW BOM_R64_NW BOM_ROCI BOM_POCI BOM_EYE BOM_POS_METHOD BOM_PRES_METHOD NADI_LAT NADI_LON NADI_CAT NADI_WIND NADI_PRES WELLINGTON_LAT WELLINGTON_LON WELLINGTON_WIND WELLINGTON_PRES DS824_LAT DS824_LON DS824_STAGE DS824_WIND DS824_PRES TD9636_LAT TD9636_LON TD9636_STAGE TD9636_WIND TD9636_PRES TD9635_LAT TD9635_LON TD9635_WIND TD9635_PRES TD9635_ROCI NEUMANN_LAT NEUMANN_LON NEUMANN_CLASS NEUMANN_WIND NEUMANN_PRES MLC_LAT MLC_LON MLC_CLASS MLC_WIND MLC_PRES USA_GUST BOM_GUST BOM_GUST_PER REUNION_GUST REUNION_GUST_PER USA_SEAHGT USA_SEARAD_NE USA_SEARAD_SE USA_SEARAD_SW USA_SEARAD_NW STORM_SPEED STORM_DIR
1891140N10082 1891 11 NI BB NOT_NAMED 1891-05-20 00:00:00 TS 10.2000 81.9000 main 157 157 _________O____ -1 10.2000 81.9000 TC 30 3 19
1891140N10082 1891 11 NI BB NOT_NAMED 1891-05-20 03:00:00 TS 10.3400 81.9350 main 164 164 _________PO___ -1 10.4100 81.9525 TC 30 10.2000 81.9000 1 3 14
1891140N10082 1891 11 NI BB NOT_NAMED 1891-05-20 06:00:00 TS 10.5119 81.9769 main 188 188 _________OP___ -1 10.6000 82.0000 TC 30 10.3797 81.9422 1 3 13
1891140N10082 1891 11 NI BB NOT_NAMED 1891-05-20 09:00:00 TS 10.6718 82.0189 main 204 204 _________PP___ -1 10.7575 82.0425 TC 30 10.5575 81.9875 1 3 16
1891140N10082 1891 11 NI BB NOT_NAMED 1891-05-20 12:00:00 TS 10.8158 82.0695 main 220 220 _________OP___ -1 10.9000 82.1000 TC 30 10.7316 82.0391 1 3 24
1891140N10082 1891 11 NI BB NOT_NAMED 1891-05-20 15:00:00 TS 10.9750 82.1500 main 244 237 _________PO___ -1 11.0500 82.2000 TC 30 10.9000 82.1000 1 4 27
1891140N10082 1891 11 NI BB NOT_NAMED 1891-05-20 18:00:00 TS 11.1306 82.2359 main 251 251 _________OP___ -1 11.2000 82.3000 TC 30 11.0613 82.1719 1 3 26
1891140N10082 1891 11 NI BB NOT_NAMED 1891-05-20 21:00:00 TS 11.2863 82.3037 main 262 259 _________PP___ -1 11.3575 82.3575 TC 30 11.2150 82.2500 1 3 22
1891140N10082 1891 11 NI BB NOT_NAMED 1891-05-21 00:00:00 TS 11.4306 82.3641 main 269 264 _________OP___ -1 11.5000 82.4000 TC 30 11.3613 82.3281 1 3 24
1891140N10082 1891 11 NI BB NOT_NAMED 1891-05-21 03:00:00 TS 11.5500 82.4250 main 259 259 _________PO___ -1 11.6000 82.4500 TC 30 11.5000 82.4000 1 3 25
1891140N10082 1891 11 NI BB NOT_NAMED 1891-05-21 06:00:00 TS 11.6661 82.4786 main 265 262 _________OP___ -1 11.7000 82.5000 TC 30 11.6322 82.4572 1 3 23
1891140N10082 1891 11 NI BB NOT_NAMED 1891-05-21 09:00:00 TS 11.8000 82.5288 main 262 259 _________PP___ -1 11.8425 82.5500 TC 30 11.7575 82.5075 1 3 20
1891140N10082 1891 11 NI BB NOT_NAMED 1891-05-21 12:00:00 TS 11.9395 82.5770 main 269 264 _________OP___ -1 12.0000 82.6000 TC 30 11.8791 82.5541 1 3 20
1891140N10082 1891 11 NI BB NOT_NAMED 1891-05-21 15:00:00 TS 12.0787 82.6250 main 264 264 _________PO___ -1 12.1575 82.6500 TC 30 12.0000 82.6000 1 3 17
1891140N10082 1891 11 NI BB NOT_NAMED 1891-05-21 18:00:00 TS 12.2064 82.6710 main 273 272 _________OP___ -1 12.3000 82.7000 TC 30 12.1128 82.6419 1 2 21
1891140N10082 1891 11 NI BB NOT_NAMED 1891-05-21 21:00:00 TS 12.3100 82.7138 main 272 271 _________PP___ -1 12.3925 82.7425 TC 30 12.2275 82.6851 1 2 24
1891140N10082 1891 11 NI BB NOT_NAMED 1891-05-22 00:00:00 TS 12.4267 82.7679 main 282 282 _________OP___ -1 12.5000 82.8000 TC 30 12.3534 82.7357 1 3 25
1891140N10082 1891 11 NI BB NOT_NAMED 1891-05-22 03:00:00 TS 12.5925 82.8463 main 282 282 _________PO___ -1 12.6850 82.8925 TC 30 12.5000 82.8000 1 4 25
1891140N10082 1891 11 NI BB NOT_NAMED 1891-05-22 06:00:00 TS 12.7892 82.9448 main 287 287 _________OP___ -1 12.9000 83.0000 TC 30 12.6785 82.8896 1 4 26
1891140N10082 1891 11 NI BB NOT_NAMED 1891-05-22 09:00:00 TS 12.9888 83.0462 main 294 294 _________PP___ -1 13.1000 83.1000 TC 30 12.8775 82.9924 1 5 26
1891140N10082 1891 11 NI BB NOT_NAMED 1891-05-22 12:00:00 TS 13.1939 83.1495 main 303 303 _________OP___ -1 13.3000 83.2000 TC 30 13.0878 83.0990 1 5 26
1891140N10082 1891 11 NI BB NOT_NAMED 1891-05-22 15:00:00 TS 13.4000 83.2537 main 324 324 _________PO___ -1 13.5000 83.3075 TC 30 13.3000 83.2000 1 5 25
1891140N10082 1891 11 NI BB NOT_NAMED 1891-05-22 18:00:00 TS 13.6000 83.3431 main 324 324 _________OP___ -1 13.7000 83.4000 TC 30 13.5000 83.2863 1 4 21
1891140N10082 1891 11 NI BB NOT_NAMED 1891-05-22 21:00:00 TS 13.8000 83.4113 main 332 317 _________PP___ -1 13.9000 83.4575 TC 30 13.7000 83.3650 1 4 16
1891140N10082 1891 11 NI BB NOT_NAMED 1891-05-23 00:00:00 TS 14.0000 83.4681 main 317 297 _________OP___ -1 14.1000 83.5000 TC 30 13.9000 83.4363 1 4 15
1891140N10082 1891 11 NI BB NOT_NAMED 1891-05-23 03:00:00 TS 14.2000 83.5250 main 297 282 _________PO___ -1 14.3000 83.5500 TC 30 14.1000 83.5000 1 4 14
1891140N10082 1891 11 NI BB NOT_NAMED 1891-05-23 06:00:00 TS 14.4041 83.5786 main 282 263 _________OP___ -1 14.5000 83.6000 TC 30 14.3081 83.5572 1 4 13
1891140N10082 1891 11 NI BB NOT_NAMED 1891-05-23 09:00:00 TS 14.6112 83.6288 main 263 251 _________PP___ -1 14.7075 83.6500 TC 30 14.5150 83.6076 1 4 14
1891140N10082 1891 11 NI BB NOT_NAMED 1891-05-23 12:00:00 TS 14.8072 83.6770 main 251 233 _________OP___ -1 14.9000 83.7000 TC 30 14.7144 83.6541 1 4 14
1891140N10082 1891 11 NI BB NOT_NAMED 1891-05-23 15:00:00 TS 14.9787 83.7250 main 233 225 _________PO___ -1 15.0575 83.7500 TC 30 14.9000 83.7000 1 3 16
1891140N10082 1891 11 NI BB NOT_NAMED 1891-05-23 18:00:00 TS 15.1281 83.7730 main 232 216 _________OP___ -1 15.2000 83.8000 TC 30 15.0562 83.7460 1 3 17
1891140N10082 1891 11 NI BB NOT_NAMED 1891-05-23 21:00:00 TS 15.2712 83.8176 main 216 209 _________PP___ -1 15.3425 83.8425 TC 30 15.2000 83.7926 1 3 18
1891140N10082 1891 11 NI BB NOT_NAMED 1891-05-24 00:00:00 TS 15.4219 83.8715 main 217 204 _________OP___ -1 15.5000 83.9000 TC 30 15.3437 83.8429 1 4 21
1891140N10082 1891 11 NI BB NOT_NAMED 1891-05-24 03:00:00 TS 15.5963 83.9500 main 204 202 _________PO___ -1 15.6925 84.0000 TC 30 15.5000 83.9000 1 4 23
1891140N10082 1891 11 NI BB NOT_NAMED 1891-05-24 06:00:00 TS 15.7908 84.0339 main 202 202 _________OP___ -1 15.9000 84.1000 TC 30 15.6816 83.9678 1 4 20
1891140N10082 1891 11 NI BB NOT_NAMED 1891-05-24 09:00:00 TS 15.9887 84.0963 main 202 183 _________PP___ -1 16.1000 84.1501 TC 30 15.8775 84.0425 1 4 16
1891140N10082 1891 11 NI BB NOT_NAMED 1891-05-24 12:00:00 TS 16.1923 84.1605 main 189 171 _________OP___ -1 16.3000 84.2000 TC 30 16.0847 84.1210 1 4 20
1891140N10082 1891 11 NI BB NOT_NAMED 1891-05-24 15:00:00 TS 16.3963 84.2500 main 178 161 _________PO___ -1 16.4925 84.3000 TC 30 16.3000 84.2000 1 4 22
1891140N10082 1891 11 NI BB NOT_NAMED 1891-05-24 18:00:00 TS 16.5975 84.3298 main 161 154 _________OP___ -1 16.7000 84.4000 TC 30 16.5206 84.2771 1 5 18
1891140N10082 1891 11 NI BB NOT_NAMED 1891-05-24 21:00:00 TS 16.8230 84.3964 main 154 138 _________PP___ -1 16.9400 84.4625 TC 30 16.7450 84.3524 1 5 15
1891140N10082 1891 11 NI BB NOT_NAMED 1891-05-25 00:00:00 TS 17.0479 84.4510 main 146 128 _________OP___ -1 17.2000 84.5000 TC 30 16.9719 84.4264 1 4 15
1891140N10082 1891 11 NI BB NOT_NAMED 1891-05-25 03:00:00 NR 17.2000 84.5000 main 128 __________O___ -1 TC 17.2000 84.5000 1 3 16

About IBTrACS Database

This database is a web-friendly format of International Best Track Archive for Climate Stewardship (IBTrACS), a global best track data archive curated by NOAA dating back to 1842.

Updated: 2021-12-08